sensor_id;sensor_type;location;lat;lon;timestamp;temperature;humidity
76607;DHT22;65498;50.916;4.698;2023-02-28T00:01:13;22.00;32.00
76607;DHT22;65498;50.916;4.698;2023-02-28T00:03:41;21.90;31.90
76607;DHT22;65498;50.916;4.698;2023-02-28T00:06:10;22.00;32.00
76607;DHT22;65498;50.916;4.698;2023-02-28T00:08:38;21.90;31.80
76607;DHT22;65498;50.916;4.698;2023-02-28T00:11:08;22.00;31.80
76607;DHT22;65498;50.916;4.698;2023-02-28T00:13:38;22.10;31.80
76607;DHT22;65498;50.916;4.698;2023-02-28T00:16:08;22.10;31.70
76607;DHT22;65498;50.916;4.698;2023-02-28T00:18:37;22.10;31.80
76607;DHT22;65498;50.916;4.698;2023-02-28T00:21:05;22.00;32.20
76607;DHT22;65498;50.916;4.698;2023-02-28T00:23:33;22.00;31.80
76607;DHT22;65498;50.916;4.698;2023-02-28T00:26:01;22.00;31.70
76607;DHT22;65498;50.916;4.698;2023-02-28T00:28:29;22.00;31.80
76607;DHT22;65498;50.916;4.698;2023-02-28T00:30:56;22.00;31.70
76607;DHT22;65498;50.916;4.698;2023-02-28T00:33:24;22.00;31.80
76607;DHT22;65498;50.916;4.698;2023-02-28T00:35:51;22.00;31.70
76607;DHT22;65498;50.916;4.698;2023-02-28T00:38:19;22.10;31.80
76607;DHT22;65498;50.916;4.698;2023-02-28T00:40:46;22.00;31.70
76607;DHT22;65498;50.916;4.698;2023-02-28T00:43:14;22.10;31.70
76607;DHT22;65498;50.916;4.698;2023-02-28T00:45:42;22.00;32.40
76607;DHT22;65498;50.916;4.698;2023-02-28T00:48:09;21.80;32.00
76607;DHT22;65498;50.916;4.698;2023-02-28T00:50:36;21.80;32.20
76607;DHT22;65498;50.916;4.698;2023-02-28T00:53:04;21.70;32.50
76607;DHT22;65498;50.916;4.698;2023-02-28T00:55:32;21.60;32.70
76607;DHT22;65498;50.916;4.698;2023-02-28T00:57:59;21.50;32.90
76607;DHT22;65498;50.916;4.698;2023-02-28T01:00:27;21.50;32.90
76607;DHT22;65498;50.916;4.698;2023-02-28T01:02:54;21.50;33.00
76607;DHT22;65498;50.916;4.698;2023-02-28T01:05:22;21.40;33.40
76607;DHT22;65498;50.916;4.698;2023-02-28T01:07:49;21.40;33.60
76607;DHT22;65498;50.916;4.698;2023-02-28T01:10:17;21.30;33.90
76607;DHT22;65498;50.916;4.698;2023-02-28T01:12:44;21.30;34.00
76607;DHT22;65498;50.916;4.698;2023-02-28T01:15:12;21.30;34.10
76607;DHT22;65498;50.916;4.698;2023-02-28T01:17:39;21.30;33.70
76607;DHT22;65498;50.916;4.698;2023-02-28T01:20:08;21.30;33.60
76607;DHT22;65498;50.916;4.698;2023-02-28T01:22:36;21.30;33.40
76607;DHT22;65498;50.916;4.698;2023-02-28T01:25:04;21.30;33.70
76607;DHT22;65498;50.916;4.698;2023-02-28T01:27:33;21.30;33.60
76607;DHT22;65498;50.916;4.698;2023-02-28T01:30:00;21.20;33.90
76607;DHT22;65498;50.916;4.698;2023-02-28T01:32:28;21.10;33.90
76607;DHT22;65498;50.916;4.698;2023-02-28T01:34:55;21.20;34.00
76607;DHT22;65498;50.916;4.698;2023-02-28T01:37:23;21.30;33.90
76607;DHT22;65498;50.916;4.698;2023-02-28T01:39:50;21.40;34.10
76607;DHT22;65498;50.916;4.698;2023-02-28T01:42:18;21.40;34.50
76607;DHT22;65498;50.916;4.698;2023-02-28T01:45:18;21.30;34.10
76607;DHT22;65498;50.916;4.698;2023-02-28T01:47:44;21.30;34.00
76607;DHT22;65498;50.916;4.698;2023-02-28T01:50:18;21.30;34.00
76607;DHT22;65498;50.916;4.698;2023-02-28T01:52:47;21.20;34.20
76607;DHT22;65498;50.916;4.698;2023-02-28T01:55:18;21.10;34.00
76607;DHT22;65498;50.916;4.698;2023-02-28T01:57:51;21.10;34.10
76607;DHT22;65498;50.916;4.698;2023-02-28T02:00:21;21.10;34.10
76607;DHT22;65498;50.916;4.698;2023-02-28T02:02:52;21.10;34.10
76607;DHT22;65498;50.916;4.698;2023-02-28T02:05:29;21.00;34.10
76607;DHT22;65498;50.916;4.698;2023-02-28T02:08:03;21.00;34.40
76607;DHT22;65498;50.916;4.698;2023-02-28T02:10:34;20.90;34.60
76607;DHT22;65498;50.916;4.698;2023-02-28T02:16:08;20.90;34.80
76607;DHT22;65498;50.916;4.698;2023-02-28T02:18:42;20.90;34.80
76607;DHT22;65498;50.916;4.698;2023-02-28T02:26:55;20.80;35.00
76607;DHT22;65498;50.916;4.698;2023-02-28T02:29:56;20.90;34.90
76607;DHT22;65498;50.916;4.698;2023-02-28T02:37:52;21.00;34.60
76607;DHT22;65498;50.916;4.698;2023-02-28T02:40:29;21.00;34.50
76607;DHT22;65498;50.916;4.698;2023-02-28T02:43:01;20.90;34.50
76607;DHT22;65498;50.916;4.698;2023-02-28T02:45:45;20.90;34.70
76607;DHT22;65498;50.916;4.698;2023-02-28T02:48:15;20.70;34.80
76607;DHT22;65498;50.916;4.698;2023-02-28T02:50:56;20.70;35.00
76607;DHT22;65498;50.916;4.698;2023-02-28T02:53:22;20.60;35.00
76607;DHT22;65498;50.916;4.698;2023-02-28T02:55:52;20.70;35.10
76607;DHT22;65498;50.916;4.698;2023-02-28T02:58:24;20.70;35.00
76607;DHT22;65498;50.916;4.698;2023-02-28T03:00:59;20.70;35.10
76607;DHT22;65498;50.916;4.698;2023-02-28T03:03:22;20.80;35.00
76607;DHT22;65498;50.916;4.698;2023-02-28T03:05:52;21.00;35.00
76607;DHT22;65498;50.916;4.698;2023-02-28T03:08:19;20.90;35.00
76607;DHT22;65498;50.916;4.698;2023-02-28T03:10:50;20.90;35.20
76607;DHT22;65498;50.916;4.698;2023-02-28T03:22:11;21.00;34.50
76607;DHT22;65498;50.916;4.698;2023-02-28T03:24:31;20.90;34.60
76607;DHT22;65498;50.916;4.698;2023-02-28T03:26:58;20.80;34.80
76607;DHT22;65498;50.916;4.698;2023-02-28T03:29:32;20.70;34.90
76607;DHT22;65498;50.916;4.698;2023-02-28T03:32:04;20.70;34.90
76607;DHT22;65498;50.916;4.698;2023-02-28T03:34:39;20.70;34.90
76607;DHT22;65498;50.916;4.698;2023-02-28T03:37:12;20.70;34.90
76607;DHT22;65498;50.916;4.698;2023-02-28T03:39:42;20.70;35.00
76607;DHT22;65498;50.916;4.698;2023-02-28T03:42:14;20.90;35.00
76607;DHT22;65498;50.916;4.698;2023-02-28T03:44:49;20.90;35.20
76607;DHT22;65498;50.916;4.698;2023-02-28T03:47:15;20.90;35.30
76607;DHT22;65498;50.916;4.698;2023-02-28T03:49:53;20.90;35.30
76607;DHT22;65498;50.916;4.698;2023-02-28T03:52:25;20.90;35.30
76607;DHT22;65498;50.916;4.698;2023-02-28T03:54:55;20.90;35.10
76607;DHT22;65498;50.916;4.698;2023-02-28T04:00:03;20.90;34.70
76607;DHT22;65498;50.916;4.698;2023-02-28T04:02:32;20.90;34.70
76607;DHT22;65498;50.916;4.698;2023-02-28T04:05:00;20.70;34.90
76607;DHT22;65498;50.916;4.698;2023-02-28T04:07:31;20.70;35.20
76607;DHT22;65498;50.916;4.698;2023-02-28T04:09:59;20.70;35.10
76607;DHT22;65498;50.916;4.698;2023-02-28T04:12:27;20.60;35.00
76607;DHT22;65498;50.916;4.698;2023-02-28T04:14:54;20.60;35.10
76607;DHT22;65498;50.916;4.698;2023-02-28T04:17:22;20.60;35.30
76607;DHT22;65498;50.916;4.698;2023-02-28T04:19:49;20.80;35.40
76607;DHT22;65498;50.916;4.698;2023-02-28T04:22:17;20.80;35.40
76607;DHT22;65498;50.916;4.698;2023-02-28T04:24:44;20.80;35.40
76607;DHT22;65498;50.916;4.698;2023-02-28T04:27:12;20.80;35.40
76607;DHT22;65498;50.916;4.698;2023-02-28T04:29:41;20.90;35.50
76607;DHT22;65498;50.916;4.698;2023-02-28T04:32:11;20.90;35.40
76607;DHT22;65498;50.916;4.698;2023-02-28T04:34:38;20.90;35.30
76607;DHT22;65498;50.916;4.698;2023-02-28T04:37:06;20.90;35.10
76607;DHT22;65498;50.916;4.698;2023-02-28T04:39:36;20.90;34.90
76607;DHT22;65498;50.916;4.698;2023-02-28T04:42:04;20.80;34.70
76607;DHT22;65498;50.916;4.698;2023-02-28T04:44:31;20.70;34.80
76607;DHT22;65498;50.916;4.698;2023-02-28T04:46:59;20.70;35.20
76607;DHT22;65498;50.916;4.698;2023-02-28T04:49:26;20.60;35.20
76607;DHT22;65498;50.916;4.698;2023-02-28T04:51:54;20.60;35.10
76607;DHT22;65498;50.916;4.698;2023-02-28T04:54:22;20.60;35.10
76607;DHT22;65498;50.916;4.698;2023-02-28T04:56:49;20.60;35.20
76607;DHT22;65498;50.916;4.698;2023-02-28T04:59:17;20.60;35.20
76607;DHT22;65498;50.916;4.698;2023-02-28T05:01:48;20.70;35.60
76607;DHT22;65498;50.916;4.698;2023-02-28T05:04:16;20.80;35.80
76607;DHT22;65498;50.916;4.698;2023-02-28T05:06:44;20.80;35.60
76607;DHT22;65498;50.916;4.698;2023-02-28T05:09:12;20.80;35.80
76607;DHT22;65498;50.916;4.698;2023-02-28T05:11:40;20.80;35.60
76607;DHT22;65498;50.916;4.698;2023-02-28T05:14:13;20.80;35.60
76607;DHT22;65498;50.916;4.698;2023-02-28T05:16:40;20.80;35.80
76607;DHT22;65498;50.916;4.698;2023-02-28T05:19:08;20.80;35.50
76607;DHT22;65498;50.916;4.698;2023-02-28T05:21:40;20.80;35.30
76607;DHT22;65498;50.916;4.698;2023-02-28T05:24:10;20.70;35.30
76607;DHT22;65498;50.916;4.698;2023-02-28T05:26:43;20.70;35.10
76607;DHT22;65498;50.916;4.698;2023-02-28T05:29:10;20.70;35.20
76607;DHT22;65498;50.916;4.698;2023-02-28T05:31:38;20.60;35.20
76607;DHT22;65498;50.916;4.698;2023-02-28T05:34:06;20.60;35.40
76607;DHT22;65498;50.916;4.698;2023-02-28T05:36:33;20.50;35.10
76607;DHT22;65498;50.916;4.698;2023-02-28T05:39:01;20.60;35.50
76607;DHT22;65498;50.916;4.698;2023-02-28T05:41:29;20.70;35.80
76607;DHT22;65498;50.916;4.698;2023-02-28T05:43:58;20.80;35.50
76607;DHT22;65498;50.916;4.698;2023-02-28T05:46:26;20.80;35.80
76607;DHT22;65498;50.916;4.698;2023-02-28T05:48:53;20.70;35.90
76607;DHT22;65498;50.916;4.698;2023-02-28T05:51:22;20.80;35.50
76607;DHT22;65498;50.916;4.698;2023-02-28T05:53:50;20.80;35.70
76607;DHT22;65498;50.916;4.698;2023-02-28T05:56:17;20.90;35.70
76607;DHT22;65498;50.916;4.698;2023-02-28T05:58:45;20.90;35.40
76607;DHT22;65498;50.916;4.698;2023-02-28T06:01:34;20.80;35.00
76607;DHT22;65498;50.916;4.698;2023-02-28T06:04:04;20.80;35.30
76607;DHT22;65498;50.916;4.698;2023-02-28T06:06:32;20.80;35.60
76607;DHT22;65498;50.916;4.698;2023-02-28T06:09:06;20.90;35.60
76607;DHT22;65498;50.916;4.698;2023-02-28T06:11:34;20.90;35.80
76607;DHT22;65498;50.916;4.698;2023-02-28T06:14:02;20.80;35.70
76607;DHT22;65498;50.916;4.698;2023-02-28T06:16:31;20.80;36.70
76607;DHT22;65498;50.916;4.698;2023-02-28T06:19:02;20.80;36.00
76607;DHT22;65498;50.916;4.698;2023-02-28T06:21:29;20.80;35.80
76607;DHT22;65498;50.916;4.698;2023-02-28T06:23:58;20.70;35.60
76607;DHT22;65498;50.916;4.698;2023-02-28T06:26:26;20.60;35.80
76607;DHT22;65498;50.916;4.698;2023-02-28T06:28:53;20.70;36.20
76607;DHT22;65498;50.916;4.698;2023-02-28T06:31:21;20.70;35.90
76607;DHT22;65498;50.916;4.698;2023-02-28T06:33:49;20.60;36.00
76607;DHT22;65498;50.916;4.698;2023-02-28T06:36:17;20.70;36.20
76607;DHT22;65498;50.916;4.698;2023-02-28T06:38:45;20.70;36.40
76607;DHT22;65498;50.916;4.698;2023-02-28T06:41:14;20.60;36.20
76607;DHT22;65498;50.916;4.698;2023-02-28T06:43:42;20.70;36.00
76607;DHT22;65498;50.916;4.698;2023-02-28T06:46:12;20.70;36.20
76607;DHT22;65498;50.916;4.698;2023-02-28T06:48:42;20.70;36.00
76607;DHT22;65498;50.916;4.698;2023-02-28T06:51:11;20.70;36.00
76607;DHT22;65498;50.916;4.698;2023-02-28T06:53:39;20.70;35.70
76607;DHT22;65498;50.916;4.698;2023-02-28T06:56:10;20.70;35.80
76607;DHT22;65498;50.916;4.698;2023-02-28T06:58:38;20.70;35.90
76607;DHT22;65498;50.916;4.698;2023-02-28T07:01:06;20.70;36.00
76607;DHT22;65498;50.916;4.698;2023-02-28T07:03:36;20.70;36.10
76607;DHT22;65498;50.916;4.698;2023-02-28T07:06:05;20.70;36.30
76607;DHT22;65498;50.916;4.698;2023-02-28T07:08:34;20.70;36.30
76607;DHT22;65498;50.916;4.698;2023-02-28T07:11:02;20.60;36.00
76607;DHT22;65498;50.916;4.698;2023-02-28T07:13:30;20.60;36.50
76607;DHT22;65498;50.916;4.698;2023-02-28T07:16:00;20.70;36.30
76607;DHT22;65498;50.916;4.698;2023-02-28T07:18:28;20.80;36.00
76607;DHT22;65498;50.916;4.698;2023-02-28T07:20:56;20.80;35.90
76607;DHT22;65498;50.916;4.698;2023-02-28T07:23:24;20.80;36.10
76607;DHT22;65498;50.916;4.698;2023-02-28T07:25:52;20.90;35.70
76607;DHT22;65498;50.916;4.698;2023-02-28T07:28:19;21.00;35.00
76607;DHT22;65498;50.916;4.698;2023-02-28T07:30:47;21.10;35.10
76607;DHT22;65498;50.916;4.698;2023-02-28T07:33:15;21.10;34.90
76607;DHT22;65498;50.916;4.698;2023-02-28T07:35:43;21.10;34.80
76607;DHT22;65498;50.916;4.698;2023-02-28T07:38:10;20.90;34.40
76607;DHT22;65498;50.916;4.698;2023-02-28T07:40:40;20.90;35.10
76607;DHT22;65498;50.916;4.698;2023-02-28T07:43:07;21.00;34.70
76607;DHT22;65498;50.916;4.698;2023-02-28T07:45:35;21.00;34.10
76607;DHT22;65498;50.916;4.698;2023-02-28T07:48:02;21.10;33.50
76607;DHT22;65498;50.916;4.698;2023-02-28T07:50:30;21.10;33.40
76607;DHT22;65498;50.916;4.698;2023-02-28T07:52:58;21.10;33.40
76607;DHT22;65498;50.916;4.698;2023-02-28T07:55:26;21.10;33.40
76607;DHT22;65498;50.916;4.698;2023-02-28T07:57:54;21.10;33.40
76607;DHT22;65498;50.916;4.698;2023-02-28T08:00:22;21.10;33.30
76607;DHT22;65498;50.916;4.698;2023-02-28T08:02:50;21.10;33.00
76607;DHT22;65498;50.916;4.698;2023-02-28T08:05:18;21.10;32.80
76607;DHT22;65498;50.916;4.698;2023-02-28T08:07:45;21.20;32.40
76607;DHT22;65498;50.916;4.698;2023-02-28T08:10:14;21.10;32.40
76607;DHT22;65498;50.916;4.698;2023-02-28T08:12:41;21.20;32.20
76607;DHT22;65498;50.916;4.698;2023-02-28T08:15:09;21.20;32.00
76607;DHT22;65498;50.916;4.698;2023-02-28T08:17:37;21.10;32.40
76607;DHT22;65498;50.916;4.698;2023-02-28T08:20:05;21.00;32.70
76607;DHT22;65498;50.916;4.698;2023-02-28T08:22:33;20.90;33.00
76607;DHT22;65498;50.916;4.698;2023-02-28T08:25:01;20.80;33.10
76607;DHT22;65498;50.916;4.698;2023-02-28T08:27:28;20.80;33.40
76607;DHT22;65498;50.916;4.698;2023-02-28T08:29:56;20.70;33.50
76607;DHT22;65498;50.916;4.698;2023-02-28T08:32:23;20.80;33.70
76607;DHT22;65498;50.916;4.698;2023-02-28T08:34:51;20.90;33.40
76607;DHT22;65498;50.916;4.698;2023-02-28T08:37:18;21.00;33.30
76607;DHT22;65498;50.916;4.698;2023-02-28T08:39:47;21.00;33.20
76607;DHT22;65498;50.916;4.698;2023-02-28T08:42:14;20.90;33.40
76607;DHT22;65498;50.916;4.698;2023-02-28T08:44:42;20.90;33.40
76607;DHT22;65498;50.916;4.698;2023-02-28T08:47:09;20.90;33.50
76607;DHT22;65498;50.916;4.698;2023-02-28T08:49:37;20.90;33.50
76607;DHT22;65498;50.916;4.698;2023-02-28T08:52:05;21.00;33.60
76607;DHT22;65498;50.916;4.698;2023-02-28T08:54:33;21.00;33.40
76607;DHT22;65498;50.916;4.698;2023-02-28T08:57:00;20.90;33.50
76607;DHT22;65498;50.916;4.698;2023-02-28T08:59:28;20.80;33.80
76607;DHT22;65498;50.916;4.698;2023-02-28T09:01:56;20.90;33.60
76607;DHT22;65498;50.916;4.698;2023-02-28T09:04:24;20.90;33.40
76607;DHT22;65498;50.916;4.698;2023-02-28T09:06:51;20.90;33.70
76607;DHT22;65498;50.916;4.698;2023-02-28T09:09:19;20.90;33.70
76607;DHT22;65498;50.916;4.698;2023-02-28T09:11:46;20.90;33.60
76607;DHT22;65498;50.916;4.698;2023-02-28T09:14:14;20.90;33.60
76607;DHT22;65498;50.916;4.698;2023-02-28T09:16:43;20.90;33.80
76607;DHT22;65498;50.916;4.698;2023-02-28T09:19:12;20.90;33.60
76607;DHT22;65498;50.916;4.698;2023-02-28T09:21:39;20.90;33.60
76607;DHT22;65498;50.916;4.698;2023-02-28T09:24:07;20.90;33.80
76607;DHT22;65498;50.916;4.698;2023-02-28T09:26:35;21.00;33.70
76607;DHT22;65498;50.916;4.698;2023-02-28T09:29:02;21.00;33.60
76607;DHT22;65498;50.916;4.698;2023-02-28T09:31:30;21.00;33.60
76607;DHT22;65498;50.916;4.698;2023-02-28T09:33:58;20.90;33.80
76607;DHT22;65498;50.916;4.698;2023-02-28T09:36:27;20.90;33.60
76607;DHT22;65498;50.916;4.698;2023-02-28T09:38:56;20.90;33.50
76607;DHT22;65498;50.916;4.698;2023-02-28T09:41:26;20.90;33.50
76607;DHT22;65498;50.916;4.698;2023-02-28T09:43:59;20.90;33.50
76607;DHT22;65498;50.916;4.698;2023-02-28T09:46:37;20.90;33.50
76607;DHT22;65498;50.916;4.698;2023-02-28T09:49:16;20.90;33.50
76607;DHT22;65498;50.916;4.698;2023-02-28T09:54:21;20.80;33.60
76607;DHT22;65498;50.916;4.698;2023-02-28T09:56:56;20.90;33.50
76607;DHT22;65498;50.916;4.698;2023-02-28T09:59:30;20.90;34.00
76607;DHT22;65498;50.916;4.698;2023-02-28T10:02:24;20.90;33.60
76607;DHT22;65498;50.916;4.698;2023-02-28T10:05:02;20.90;33.40
76607;DHT22;65498;50.916;4.698;2023-02-28T10:10:30;20.90;33.50
76607;DHT22;65498;50.916;4.698;2023-02-28T10:13:00;20.90;33.70
76607;DHT22;65498;50.916;4.698;2023-02-28T10:15:30;20.90;33.40
76607;DHT22;65498;50.916;4.698;2023-02-28T10:18:03;20.90;33.50
76607;DHT22;65498;50.916;4.698;2023-02-28T10:20:33;20.90;33.50
76607;DHT22;65498;50.916;4.698;2023-02-28T10:23:05;20.90;33.20
76607;DHT22;65498;50.916;4.698;2023-02-28T10:25:36;20.90;33.40
76607;DHT22;65498;50.916;4.698;2023-02-28T10:28:13;20.90;33.50
76607;DHT22;65498;50.916;4.698;2023-02-28T10:30:44;20.90;33.40
76607;DHT22;65498;50.916;4.698;2023-02-28T10:33:24;20.90;33.10
76607;DHT22;65498;50.916;4.698;2023-02-28T10:35:48;20.80;33.20
76607;DHT22;65498;50.916;4.698;2023-02-28T10:38:22;20.80;33.40
76607;DHT22;65498;50.916;4.698;2023-02-28T10:40:49;20.80;33.20
76607;DHT22;65498;50.916;4.698;2023-02-28T10:43:19;20.80;33.10
76607;DHT22;65498;50.916;4.698;2023-02-28T10:51:04;20.80;33.00
76607;DHT22;65498;50.916;4.698;2023-02-28T10:53:35;20.80;32.90
76607;DHT22;65498;50.916;4.698;2023-02-28T11:04:02;20.90;32.40
76607;DHT22;65498;50.916;4.698;2023-02-28T11:06:32;20.90;32.50
76607;DHT22;65498;50.916;4.698;2023-02-28T11:09:16;20.90;32.70
76607;DHT22;65498;50.916;4.698;2023-02-28T11:11:44;20.80;32.40
76607;DHT22;65498;50.916;4.698;2023-02-28T11:14:25;20.90;32.50
76607;DHT22;65498;50.916;4.698;2023-02-28T11:16:50;20.80;32.50
76607;DHT22;65498;50.916;4.698;2023-02-28T11:19:25;20.80;32.60
76607;DHT22;65498;50.916;4.698;2023-02-28T11:22:01;20.90;32.60
76607;DHT22;65498;50.916;4.698;2023-02-28T11:24:27;20.90;32.40
76607;DHT22;65498;50.916;4.698;2023-02-28T11:26:56;20.90;32.40
76607;DHT22;65498;50.916;4.698;2023-02-28T11:29:26;20.90;32.60
76607;DHT22;65498;50.916;4.698;2023-02-28T11:32:19;20.90;32.50
76607;DHT22;65498;50.916;4.698;2023-02-28T11:34:44;20.90;32.30
76607;DHT22;65498;50.916;4.698;2023-02-28T11:37:15;20.90;32.40
76607;DHT22;65498;50.916;4.698;2023-02-28T11:39:43;20.90;32.40
76607;DHT22;65498;50.916;4.698;2023-02-28T11:42:38;20.90;32.20
76607;DHT22;65498;50.916;4.698;2023-02-28T11:45:22;20.90;32.00
76607;DHT22;65498;50.916;4.698;2023-02-28T11:50:40;20.80;32.10
76607;DHT22;65498;50.916;4.698;2023-02-28T11:58:38;20.90;32.00
76607;DHT22;65498;50.916;4.698;2023-02-28T12:01:38;20.80;31.60
76607;DHT22;65498;50.916;4.698;2023-02-28T12:07:22;20.90;31.60
76607;DHT22;65498;50.916;4.698;2023-02-28T12:21:18;20.70;31.60
76607;DHT22;65498;50.916;4.698;2023-02-28T12:34:27;20.70;32.90
76607;DHT22;65498;50.916;4.698;2023-02-28T12:36:56;20.80;32.50
76607;DHT22;65498;50.916;4.698;2023-02-28T12:39:28;20.80;32.40
76607;DHT22;65498;50.916;4.698;2023-02-28T12:43:05;20.80;32.70
76607;DHT22;65498;50.916;4.698;2023-02-28T12:45:03;20.80;33.40
76607;DHT22;65498;50.916;4.698;2023-02-28T12:47:30;20.90;32.60
76607;DHT22;65498;50.916;4.698;2023-02-28T12:50:00;20.90;32.20
76607;DHT22;65498;50.916;4.698;2023-02-28T12:57:57;21.00;32.20
76607;DHT22;65498;50.916;4.698;2023-02-28T13:00:23;21.00;32.00
76607;DHT22;65498;50.916;4.698;2023-02-28T13:02:57;21.10;31.80
76607;DHT22;65498;50.916;4.698;2023-02-28T13:11:31;21.20;31.70
76607;DHT22;65498;50.916;4.698;2023-02-28T13:14:01;21.20;31.30
76607;DHT22;65498;50.916;4.698;2023-02-28T13:19:17;21.20;31.80
76607;DHT22;65498;50.916;4.698;2023-02-28T13:21:47;21.30;31.20
76607;DHT22;65498;50.916;4.698;2023-02-28T13:29:39;21.20;31.30
76607;DHT22;65498;50.916;4.698;2023-02-28T13:34:49;21.20;31.30
76607;DHT22;65498;50.916;4.698;2023-02-28T13:50:22;21.50;30.80
76607;DHT22;65498;50.916;4.698;2023-02-28T13:56:07;21.60;30.50
76607;DHT22;65498;50.916;4.698;2023-02-28T13:58:54;21.60;30.30
76607;DHT22;65498;50.916;4.698;2023-02-28T14:01:45;21.60;30.00
76607;DHT22;65498;50.916;4.698;2023-02-28T14:04:50;21.70;29.80
76607;DHT22;65498;50.916;4.698;2023-02-28T14:06:51;21.70;29.80
76607;DHT22;65498;50.916;4.698;2023-02-28T14:09:29;21.70;29.80
76607;DHT22;65498;50.916;4.698;2023-02-28T14:11:57;21.70;29.80
76607;DHT22;65498;50.916;4.698;2023-02-28T14:17:14;21.70;29.70
76607;DHT22;65498;50.916;4.698;2023-02-28T14:19:46;21.70;29.70
76607;DHT22;65498;50.916;4.698;2023-02-28T14:22:40;21.80;29.80
76607;DHT22;65498;50.916;4.698;2023-02-28T14:25:21;21.80;30.10
76607;DHT22;65498;50.916;4.698;2023-02-28T14:27:58;21.90;29.70
76607;DHT22;65498;50.916;4.698;2023-02-28T14:38:28;22.00;30.30
76607;DHT22;65498;50.916;4.698;2023-02-28T14:40:58;22.00;29.70
76607;DHT22;65498;50.916;4.698;2023-02-28T14:43:28;22.00;29.90
76607;DHT22;65498;50.916;4.698;2023-02-28T14:46:00;22.00;29.90
76607;DHT22;65498;50.916;4.698;2023-02-28T14:48:29;22.00;30.00
76607;DHT22;65498;50.916;4.698;2023-02-28T14:50:59;22.00;30.10
76607;DHT22;65498;50.916;4.698;2023-02-28T14:53:35;22.10;30.00
76607;DHT22;65498;50.916;4.698;2023-02-28T14:56:01;22.10;30.00
76607;DHT22;65498;50.916;4.698;2023-02-28T14:58:31;22.10;30.10
76607;DHT22;65498;50.916;4.698;2023-02-28T15:01:02;22.10;30.10
76607;DHT22;65498;50.916;4.698;2023-02-28T15:03:38;22.20;30.30
76607;DHT22;65498;50.916;4.698;2023-02-28T15:06:16;22.20;30.00
76607;DHT22;65498;50.916;4.698;2023-02-28T15:08:45;22.30;30.10
76607;DHT22;65498;50.916;4.698;2023-02-28T15:11:17;22.30;30.10
76607;DHT22;65498;50.916;4.698;2023-02-28T15:13:50;22.20;30.30
76607;DHT22;65498;50.916;4.698;2023-02-28T15:16:28;22.20;30.40
76607;DHT22;65498;50.916;4.698;2023-02-28T15:19:04;22.20;30.20
76607;DHT22;65498;50.916;4.698;2023-02-28T15:21:36;22.30;30.10
76607;DHT22;65498;50.916;4.698;2023-02-28T15:26:43;22.30;30.40
76607;DHT22;65498;50.916;4.698;2023-02-28T15:29:21;22.20;30.20
76607;DHT22;65498;50.916;4.698;2023-02-28T15:31:51;22.20;30.40
76607;DHT22;65498;50.916;4.698;2023-02-28T15:36:54;22.20;30.60
76607;DHT22;65498;50.916;4.698;2023-02-28T15:39:24;22.20;30.70
76607;DHT22;65498;50.916;4.698;2023-02-28T15:42:18;22.20;30.70
76607;DHT22;65498;50.916;4.698;2023-02-28T15:44:42;22.20;31.40
76607;DHT22;65498;50.916;4.698;2023-02-28T15:47:21;22.30;31.00
76607;DHT22;65498;50.916;4.698;2023-02-28T15:49:54;22.30;30.80
76607;DHT22;65498;50.916;4.698;2023-02-28T15:52:37;22.30;30.70
76607;DHT22;65498;50.916;4.698;2023-02-28T15:54:59;22.30;30.70
76607;DHT22;65498;50.916;4.698;2023-02-28T15:57:29;22.30;30.90
76607;DHT22;65498;50.916;4.698;2023-02-28T16:00:00;22.30;31.00
76607;DHT22;65498;50.916;4.698;2023-02-28T16:02:33;22.30;30.90
76607;DHT22;65498;50.916;4.698;2023-02-28T16:07:39;22.30;31.10
76607;DHT22;65498;50.916;4.698;2023-02-28T16:10:09;22.30;31.00
76607;DHT22;65498;50.916;4.698;2023-02-28T16:12:39;22.30;31.00
76607;DHT22;65498;50.916;4.698;2023-02-28T16:15:19;22.40;31.20
76607;DHT22;65498;50.916;4.698;2023-02-28T16:17:47;22.40;31.20
76607;DHT22;65498;50.916;4.698;2023-02-28T16:20:22;22.40;31.30
76607;DHT22;65498;50.916;4.698;2023-02-28T16:22:46;22.40;31.30
76607;DHT22;65498;50.916;4.698;2023-02-28T16:25:19;22.40;31.00
76607;DHT22;65498;50.916;4.698;2023-02-28T16:27:49;22.40;31.10
76607;DHT22;65498;50.916;4.698;2023-02-28T16:30:27;22.50;31.20
76607;DHT22;65498;50.916;4.698;2023-02-28T16:32:51;22.40;31.30
76607;DHT22;65498;50.916;4.698;2023-02-28T16:35:20;22.40;31.00
76607;DHT22;65498;50.916;4.698;2023-02-28T16:37:47;22.40;31.40
76607;DHT22;65498;50.916;4.698;2023-02-28T16:40:18;22.40;31.50
76607;DHT22;65498;50.916;4.698;2023-02-28T16:42:49;22.30;31.40
76607;DHT22;65498;50.916;4.698;2023-02-28T16:45:23;22.40;31.60
76607;DHT22;65498;50.916;4.698;2023-02-28T16:47:51;22.40;31.40
76607;DHT22;65498;50.916;4.698;2023-02-28T16:50:26;22.50;31.50
76607;DHT22;65498;50.916;4.698;2023-02-28T16:52:55;22.40;31.70
76607;DHT22;65498;50.916;4.698;2023-02-28T16:55:24;22.30;31.60
76607;DHT22;65498;50.916;4.698;2023-02-28T16:57:55;22.40;32.20
76607;DHT22;65498;50.916;4.698;2023-02-28T17:00:23;22.50;31.60
76607;DHT22;65498;50.916;4.698;2023-02-28T17:02:52;22.40;31.70
76607;DHT22;65498;50.916;4.698;2023-02-28T17:05:19;22.40;31.40
76607;DHT22;65498;50.916;4.698;2023-02-28T17:07:47;22.30;31.60
76607;DHT22;65498;50.916;4.698;2023-02-28T17:10:24;22.30;31.60
76607;DHT22;65498;50.916;4.698;2023-02-28T17:12:52;22.30;31.40
76607;DHT22;65498;50.916;4.698;2023-02-28T17:15:20;22.40;31.30
76607;DHT22;65498;50.916;4.698;2023-02-28T17:17:48;22.30;31.30
76607;DHT22;65498;50.916;4.698;2023-02-28T17:20:20;22.30;31.00
76607;DHT22;65498;50.916;4.698;2023-02-28T17:22:53;22.40;30.90
76607;DHT22;65498;50.916;4.698;2023-02-28T17:25:22;22.30;30.60
76607;DHT22;65498;50.916;4.698;2023-02-28T17:27:50;22.40;30.50
76607;DHT22;65498;50.916;4.698;2023-02-28T17:30:23;22.50;30.10
76607;DHT22;65498;50.916;4.698;2023-02-28T17:32:51;22.50;30.10
76607;DHT22;65498;50.916;4.698;2023-02-28T17:35:18;22.50;30.00
76607;DHT22;65498;50.916;4.698;2023-02-28T17:37:46;22.40;30.00
76607;DHT22;65498;50.916;4.698;2023-02-28T17:40:17;22.40;29.70
76607;DHT22;65498;50.916;4.698;2023-02-28T17:42:45;22.40;29.80
76607;DHT22;65498;50.916;4.698;2023-02-28T17:45:14;22.30;29.80
76607;DHT22;65498;50.916;4.698;2023-02-28T17:47:43;22.50;29.60
76607;DHT22;65498;50.916;4.698;2023-02-28T17:50:16;22.60;29.60
76607;DHT22;65498;50.916;4.698;2023-02-28T17:52:43;22.40;29.80
76607;DHT22;65498;50.916;4.698;2023-02-28T17:55:11;22.50;29.90
76607;DHT22;65498;50.916;4.698;2023-02-28T17:57:39;22.50;29.90
76607;DHT22;65498;50.916;4.698;2023-02-28T18:00:10;22.50;30.00
76607;DHT22;65498;50.916;4.698;2023-02-28T18:02:38;22.50;30.00
76607;DHT22;65498;50.916;4.698;2023-02-28T18:05:06;22.60;30.00